Time;durP1;ratioP1;P1;durP2;ratioP2;P2;SDS_P1;SDS_P2;PMS_P1;PMS_P2;Temp;Humidity;BMP_temperature;BMP_pressure;BME280_temperature;BME280_humidity;BME280_pressure;Samples;Min_cycle;Max_cycle;Signal;HPM_P1;HPM_P2
2022/12/30 00:00:38;;;;;;;9.15;2.33;;;;;;;;;;5056009;28;20177;-82
2022/12/30 00:03:04;;;;;;;16.33;2.75;;;;;;;;;;5054773;28;20180;-81
2022/12/30 00:05:30;;;;;;;8.38;2.65;;;;;;;;;;5054193;28;20234;-82
2022/12/30 00:07:56;;;;;;;16.15;3.65;;;;;;;;;;5054604;28;20172;-81
2022/12/30 00:10:22;;;;;;;7.57;2.05;;;;;;;;;;5054564;28;20180;-82
2022/12/30 00:35:01;;;;;;;8.23;2.28;;;;;;;;;;5055243;28;20742;-82
2022/12/30 00:37:27;;;;;;;6.35;2.20;;;;;;;;;;5054233;28;20194;-81
2022/12/30 00:39:53;;;;;;;6.95;2.15;;;;;;;;;;5054506;28;20172;-82
2022/12/30 00:45:04;;;;;;;7.90;2.58;;;;;;;;;;5055328;28;20535;-81
2022/12/30 00:47:30;;;;;;;14.70;3.67;;;;;;;;;;5053006;28;20239;-85
2022/12/30 00:58:10;;;;;;;11.35;2.42;;;;;;;;;;5055223;28;20231;-81
2022/12/30 01:00:36;;;;;;;5.22;2.03;;;;;;;;;;5054794;28;20188;-82
2022/12/30 01:03:02;;;;;;;8.02;2.40;;;;;;;;;;5053382;28;20231;-82
2022/12/30 01:05:28;;;;;;;10.02;2.80;;;;;;;;;;5053679;28;20188;-81
2022/12/30 01:07:54;;;;;;;6.88;2.15;;;;;;;;;;5053231;28;20535;-82
2022/12/30 01:10:20;;;;;;;5.55;2.20;;;;;;;;;;5037109;28;20197;-82
2022/12/30 01:12:46;;;;;;;8.27;2.35;;;;;;;;;;5054502;28;20182;-81
2022/12/30 01:15:13;;;;;;;8.65;1.90;;;;;;;;;;5053236;28;20209;-82
2022/12/30 01:17:39;;;;;;;12.95;2.20;;;;;;;;;;5054556;28;20260;-82
2022/12/30 01:20:06;;;;;;;10.40;2.38;;;;;;;;;;5054795;28;20182;-81
2022/12/30 01:22:32;;;;;;;8.68;2.22;;;;;;;;;;5054469;28;20217;-82
2022/12/30 01:24:58;;;;;;;9.27;2.15;;;;;;;;;;5053382;28;20289;-81
2022/12/30 01:27:24;;;;;;;12.93;2.47;;;;;;;;;;5052537;28;20521;-82
2022/12/30 01:29:50;;;;;;;12.70;2.60;;;;;;;;;;5052720;28;20505;-82
2022/12/30 01:32:17;;;;;;;7.20;2.30;;;;;;;;;;5036794;28;20280;-82
2022/12/30 01:34:43;;;;;;;9.43;2.13;;;;;;;;;;5052937;28;20198;-82
2022/12/30 01:37:10;;;;;;;5.65;1.88;;;;;;;;;;5054505;28;20210;-82
2022/12/30 01:39:36;;;;;;;8.55;2.53;;;;;;;;;;5052774;28;20188;-85
2022/12/30 01:42:03;;;;;;;9.02;2.10;;;;;;;;;;5054013;28;20179;-82
2022/12/30 01:44:47;;;;;;;10.70;2.20;;;;;;;;;;5036823;28;20253;-81
2022/12/30 01:47:18;;;;;;;14.27;3.30;;;;;;;;;;5054664;28;20177;-81
2022/12/30 01:49:46;;;;;;;5.28;1.67;;;;;;;;;;5053436;28;20170;-81
2022/12/30 01:52:13;;;;;;;9.57;2.20;;;;;;;;;;5054630;28;20582;-81
2022/12/30 01:54:39;;;;;;;4.75;2.00;;;;;;;;;;5053828;28;20204;-82
2022/12/30 01:57:07;;;;;;;14.75;2.83;;;;;;;;;;5054510;28;20193;-81
2022/12/30 01:59:33;;;;;;;7.57;2.25;;;;;;;;;;5056971;28;20249;-81
2022/12/30 02:02:00;;;;;;;7.50;2.08;;;;;;;;;;5057674;28;20224;-82
2022/12/30 02:04:27;;;;;;;9.65;2.05;;;;;;;;;;5058036;28;20172;-82
2022/12/30 02:07:01;;;;;;;6.45;1.77;;;;;;;;;;5057951;28;20170;-82
2022/12/30 02:09:28;;;;;;;10.57;1.55;;;;;;;;;;5056748;28;20225;-81
2022/12/30 02:11:56;;;;;;;9.93;1.95;;;;;;;;;;5039507;28;20193;-81
2022/12/30 02:14:22;;;;;;;6.25;2.42;;;;;;;;;;5057678;28;20165;-81
2022/12/30 02:16:54;;;;;;;10.43;2.53;;;;;;;;;;5057688;28;20182;-82
2022/12/30 02:19:38;;;;;;;6.65;2.10;;;;;;;;;;5056334;28;20240;-82
2022/12/30 02:22:40;;;;;;;8.98;2.20;;;;;;;;;;5057704;28;20184;-81
2022/12/30 02:25:20;;;;;;;12.82;2.10;;;;;;;;;;5018709;28;20602;-81
2022/12/30 02:28:05;;;;;;;22.33;2.25;;;;;;;;;;5055178;28;20311;-81
2022/12/30 02:30:31;;;;;;;14.32;3.17;;;;;;;;;;5057507;28;20223;-81
2022/12/30 02:33:03;;;;;;;10.97;2.17;;;;;;;;;;5057492;28;20526;-81
2022/12/30 02:35:32;;;;;;;9.07;1.70;;;;;;;;;;5057406;28;20800;-81
2022/12/30 02:38:05;;;;;;;10.48;2.72;;;;;;;;;;5057345;28;20180;-81
2022/12/30 02:46:12;;;;;;;7.65;1.83;;;;;;;;;;5057339;28;20249;-82
2022/12/30 02:48:40;;;;;;;9.95;2.75;;;;;;;;;;5039610;28;20192;-85
2022/12/30 02:53:51;;;;;;;7.45;2.35;;;;;;;;;;5056621;28;20168;-81
2022/12/30 02:56:17;;;;;;;11.80;2.35;;;;;;;;;;5055692;28;20524;-81
2022/12/30 02:58:46;;;;;;;9.15;2.20;;;;;;;;;;5056950;28;20583;-81
2022/12/30 03:04:10;;;;;;;5.90;2.22;;;;;;;;;;5056756;28;20208;-81
2022/12/30 03:06:36;;;;;;;8.80;2.03;;;;;;;;;;5057349;28;20176;-81
2022/12/30 03:09:07;;;;;;;14.70;2.47;;;;;;;;;;5056049;28;20228;-81
2022/12/30 03:11:38;;;;;;;6.45;2.15;;;;;;;;;;5055224;28;20696;-82
2022/12/30 03:14:03;;;;;;;11.40;3.15;;;;;;;;;;5055510;28;20195;-81
2022/12/30 03:16:40;;;;;;;7.90;1.90;;;;;;;;;;5056525;28;20613;-81
2022/12/30 03:19:08;;;;;;;8.52;2.83;;;;;;;;;;5055458;28;20200;-81
2022/12/30 03:21:36;;;;;;;12.23;2.35;;;;;;;;;;5055312;28;20212;-82
2022/12/30 03:27:06;;;;;;;7.70;1.70;;;;;;;;;;5056607;28;20521;-82
2022/12/30 03:29:37;;;;;;;10.23;2.03;;;;;;;;;;5056638;28;20154;-82
2022/12/30 03:32:05;;;;;;;11.52;3.63;;;;;;;;;;5056407;28;20244;-81
2022/12/30 03:34:32;;;;;;;13.23;2.63;;;;;;;;;;5055467;28;20170;-81
2022/12/30 03:37:13;;;;;;;6.90;2.00;;;;;;;;;;5054769;28;20261;-81
2022/12/30 03:39:42;;;;;;;6.82;1.80;;;;;;;;;;5056037;28;20244;-82
2022/12/30 03:42:08;;;;;;;8.50;1.85;;;;;;;;;;5054431;28;20177;-81
2022/12/30 03:44:35;;;;;;;10.23;1.88;;;;;;;;;;5055078;28;20269;-82
2022/12/30 03:47:01;;;;;;;17.25;2.55;;;;;;;;;;5038407;28;20858;-82
2022/12/30 03:49:27;;;;;;;8.82;2.80;;;;;;;;;;5054715;28;20173;-82
2022/12/30 03:51:53;;;;;;;4.95;2.10;;;;;;;;;;5056196;28;20180;-81
2022/12/30 03:54:19;;;;;;;5.78;2.08;;;;;;;;;;5056084;28;20227;-81
2022/12/30 03:56:45;;;;;;;12.77;3.60;;;;;;;;;;5054761;28;20250;-82
2022/12/30 03:59:11;;;;;;;12.48;2.60;;;;;;;;;;5038185;28;20173;-82
2022/12/30 04:01:37;;;;;;;11.20;2.90;;;;;;;;;;5054360;28;20229;-82
2022/12/30 04:04:03;;;;;;;16.90;2.80;;;;;;;;;;5054519;28;20174;-82
2022/12/30 04:06:29;;;;;;;16.73;2.90;;;;;;;;;;5054522;28;20703;-81
2022/12/30 04:08:55;;;;;;;9.45;2.47;;;;;;;;;;5055205;28;20589;-82
2022/12/30 04:11:21;;;;;;;10.13;2.83;;;;;;;;;;5055829;28;20499;-81
2022/12/30 04:13:48;;;;;;;9.38;2.78;;;;;;;;;;5054229;28;20738;-82
2022/12/30 04:16:14;;;;;;;16.05;2.88;;;;;;;;;;5054176;28;20239;-82
2022/12/30 04:18:40;;;;;;;9.30;1.98;;;;;;;;;;5054342;28;20181;-82
2022/12/30 04:21:06;;;;;;;7.30;2.17;;;;;;;;;;5053337;28;20177;-81
2022/12/30 04:23:33;;;;;;;11.38;2.83;;;;;;;;;;5054300;28;20181;-81
2022/12/30 04:25:59;;;;;;;13.63;2.05;;;;;;;;;;5055468;28;20178;-82
2022/12/30 04:28:25;;;;;;;10.73;2.42;;;;;;;;;;5054223;28;20673;-81
2022/12/30 04:30:51;;;;;;;7.78;1.98;;;;;;;;;;5055111;28;20232;-81
2022/12/30 04:33:17;;;;;;;7.53;2.20;;;;;;;;;;5037870;28;20172;-81
2022/12/30 04:35:43;;;;;;;16.42;3.13;;;;;;;;;;5054977;28;20208;-81
2022/12/30 04:38:09;;;;;;;5.20;1.77;;;;;;;;;;5055488;28;20216;-81
2022/12/30 04:40:35;;;;;;;7.65;3.90;;;;;;;;;;5054121;28;20177;-81
2022/12/30 04:43:01;;;;;;;11.50;2.25;;;;;;;;;;5053731;28;20178;-81
2022/12/30 04:45:27;;;;;;;16.48;2.80;;;;;;;;;;5054026;28;20185;-81
2022/12/30 04:47:53;;;;;;;6.20;2.63;;;;;;;;;;5054943;28;20173;-81
2022/12/30 04:50:19;;;;;;;3.90;1.90;;;;;;;;;;5037453;28;20634;-81
2022/12/30 04:52:45;;;;;;;11.02;3.05;;;;;;;;;;5037348;28;20181;-87
2022/12/30 04:55:11;;;;;;;8.23;2.50;;;;;;;;;;5054797;28;20197;-81
2022/12/30 04:57:37;;;;;;;6.55;2.00;;;;;;;;;;5053917;28;20227;-81
2022/12/30 05:00:05;;;;;;;10.95;3.47;;;;;;;;;;5054793;28;20573;-81
2022/12/30 05:02:31;;;;;;;14.77;2.97;;;;;;;;;;5053689;28;20166;-82
2022/12/30 05:04:57;;;;;;;6.45;2.53;;;;;;;;;;5055025;28;20181;-81
2022/12/30 05:07:23;;;;;;;9.43;2.10;;;;;;;;;;5055081;28;20256;-81
2022/12/30 05:09:49;;;;;;;11.50;2.45;;;;;;;;;;5055047;28;20225;-82
2022/12/30 05:12:15;;;;;;;5.78;2.40;;;;;;;;;;5053352;28;20299;-81
2022/12/30 05:14:41;;;;;;;13.50;3.13;;;;;;;;;;5055076;28;20224;-81
2022/12/30 05:17:07;;;;;;;21.73;3.47;;;;;;;;;;5053743;28;20299;-81
2022/12/30 05:19:33;;;;;;;6.30;1.92;;;;;;;;;;5053755;28;20184;-81
2022/12/30 05:21:59;;;;;;;6.25;1.95;;;;;;;;;;5036474;28;20195;-81
2022/12/30 05:27:09;;;;;;;7.72;1.98;;;;;;;;;;5054088;28;20216;-81
2022/12/30 05:29:35;;;;;;;6.50;2.10;;;;;;;;;;5053436;28;20177;-83
2022/12/30 05:32:01;;;;;;;6.53;1.85;;;;;;;;;;5054732;28;20184;-82
2022/12/30 05:34:27;;;;;;;7.90;2.35;;;;;;;;;;5057861;28;20195;-81
2022/12/30 05:36:53;;;;;;;8.48;2.30;;;;;;;;;;5057482;28;20443;-81
2022/12/30 05:39:20;;;;;;;8.55;2.30;;;;;;;;;;5057921;28;20177;-81
2022/12/30 05:41:45;;;;;;;12.70;3.03;;;;;;;;;;5057597;28;20207;-81
2022/12/30 05:44:11;;;;;;;7.65;2.28;;;;;;;;;;5058375;28;20177;-81
2022/12/30 05:46:37;;;;;;;6.65;2.40;;;;;;;;;;5057434;28;20177;-81
2022/12/30 05:49:04;;;;;;;9.45;2.75;;;;;;;;;;5040817;28;20190;-81
2022/12/30 05:51:30;;;;;;;13.05;2.85;;;;;;;;;;5040837;28;20181;-81
2022/12/30 05:53:56;;;;;;;7.28;2.50;;;;;;;;;;5040717;28;20272;-81
2022/12/30 05:56:23;;;;;;;7.05;1.90;;;;;;;;;;5057504;28;20553;-81
2022/12/30 05:58:49;;;;;;;11.23;2.30;;;;;;;;;;5056887;28;20178;-81
2022/12/30 06:01:15;;;;;;;7.82;1.80;;;;;;;;;;5056666;28;20182;-81
2022/12/30 06:03:41;;;;;;;5.03;1.98;;;;;;;;;;5057013;28;20173;-82
2022/12/30 06:06:07;;;;;;;9.88;2.55;;;;;;;;;;5056649;28;20180;-81
2022/12/30 06:08:34;;;;;;;13.75;2.53;;;;;;;;;;5057206;28;20642;-81
2022/12/30 06:11:00;;;;;;;5.88;1.60;;;;;;;;;;5056359;28;20623;-81
2022/12/30 06:13:26;;;;;;;10.75;2.90;;;;;;;;;;5056706;28;20182;-81
2022/12/30 06:15:52;;;;;;;4.50;1.83;;;;;;;;;;5056106;28;20241;-81
2022/12/30 06:18:18;;;;;;;5.60;1.55;;;;;;;;;;5057284;28;20182;-81
2022/12/30 06:20:45;;;;;;;7.85;1.85;;;;;;;;;;5058216;28;20582;-81
2022/12/30 06:23:11;;;;;;;9.48;2.20;;;;;;;;;;5056058;28;20253;-81
2022/12/30 06:25:37;;;;;;;5.65;1.88;;;;;;;;;;5055888;28;20541;-81
2022/12/30 06:28:03;;;;;;;12.65;2.35;;;;;;;;;;5057267;28;20204;-81
2022/12/30 06:30:29;;;;;;;6.65;2.42;;;;;;;;;;5057862;28;20170;-80
2022/12/30 06:32:56;;;;;;;8.35;2.35;;;;;;;;;;5055821;28;20190;-80
2022/12/30 06:35:22;;;;;;;5.40;1.58;;;;;;;;;;5057766;28;20197;-79
2022/12/30 06:37:48;;;;;;;7.68;1.55;;;;;;;;;;5057168;28;20178;-79
2022/12/30 06:40:14;;;;;;;5.32;2.30;;;;;;;;;;5056500;28;20189;-79
2022/12/30 06:42:40;;;;;;;3.67;1.30;;;;;;;;;;5058065;28;20312;-81
2022/12/30 06:45:08;;;;;;;4.93;2.17;;;;;;;;;;5055869;28;20514;-81
2022/12/30 06:47:34;;;;;;;2.78;1.55;;;;;;;;;;5056207;28;20288;-81
2022/12/30 06:50:00;;;;;;;6.38;1.80;;;;;;;;;;5056615;28;20177;-81
2022/12/30 06:52:26;;;;;;;5.03;1.90;;;;;;;;;;5057368;28;20174;-81
2022/12/30 06:54:52;;;;;;;3.28;1.38;;;;;;;;;;5039444;28;20263;-83
2022/12/30 06:57:18;;;;;;;4.47;1.38;;;;;;;;;;5056682;28;20174;-79
2022/12/30 06:59:44;;;;;;;2.38;1.70;;;;;;;;;;5057123;28;20173;-79
2022/12/30 07:02:11;;;;;;;3.15;1.80;;;;;;;;;;5056005;28;20202;-78
2022/12/30 07:04:37;;;;;;;8.02;1.73;;;;;;;;;;5058402;28;20216;-78
2022/12/30 07:07:03;;;;;;;5.55;1.88;;;;;;;;;;5040220;28;20192;-78
2022/12/30 07:09:29;;;;;;;6.53;1.75;;;;;;;;;;5040258;28;20238;-80
2022/12/30 07:11:55;;;;;;;7.50;1.90;;;;;;;;;;5039410;28;20204;-79
2022/12/30 07:14:21;;;;;;;6.85;1.98;;;;;;;;;;5057994;28;20172;-78
2022/12/30 07:16:47;;;;;;;2.28;1.50;;;;;;;;;;5040374;28;20217;-78
2022/12/30 07:19:14;;;;;;;3.05;1.83;;;;;;;;;;5057905;28;20186;-78
2022/12/30 07:21:40;;;;;;;4.57;2.00;;;;;;;;;;5056961;28;20193;-78
2022/12/30 07:24:06;;;;;;;5.28;2.25;;;;;;;;;;5057956;28;20180;-78
2022/12/30 07:26:32;;;;;;;6.78;1.77;;;;;;;;;;5040798;28;20184;-78
2022/12/30 07:28:58;;;;;;;9.52;2.15;;;;;;;;;;5056497;28;20169;-78
2022/12/30 07:31:24;;;;;;;11.35;1.98;;;;;;;;;;5056104;28;20239;-78
2022/12/30 07:33:50;;;;;;;8.88;1.50;;;;;;;;;;5056291;28;20234;-79
2022/12/30 07:36:16;;;;;;;2.67;1.40;;;;;;;;;;5038666;28;20572;-79
2022/12/30 07:38:42;;;;;;;7.25;2.22;;;;;;;;;;5055579;28;20626;-78
2022/12/30 07:41:09;;;;;;;2.40;1.30;;;;;;;;;;5056176;28;20267;-78
2022/12/30 07:43:35;;;;;;;4.38;1.63;;;;;;;;;;5056466;28;20181;-78
2022/12/30 07:46:05;;;;;;;6.72;1.75;;;;;;;;;;5055475;28;20184;-78
2022/12/30 07:48:31;;;;;;;3.53;1.85;;;;;;;;;;5055725;28;20175;-78
2022/12/30 07:50:57;;;;;;;3.90;1.58;;;;;;;;;;5056423;28;20177;-80
2022/12/30 07:53:23;;;;;;;7.78;2.03;;;;;;;;;;5056824;28;20163;-79
2022/12/30 07:55:49;;;;;;;5.13;1.88;;;;;;;;;;5038651;28;20209;-79
2022/12/30 07:58:15;;;;;;;10.18;2.40;;;;;;;;;;5038684;28;20680;-79
2022/12/30 08:00:41;;;;;;;4.65;1.42;;;;;;;;;;5055172;28;20180;-78
2022/12/30 08:03:07;;;;;;;4.50;1.33;;;;;;;;;;5054683;28;20181;-79
2022/12/30 08:05:33;;;;;;;7.00;1.98;;;;;;;;;;5038925;28;20181;-78
2022/12/30 08:07:59;;;;;;;7.93;2.10;;;;;;;;;;5054815;28;20206;-79
2022/12/30 08:10:25;;;;;;;6.93;1.20;;;;;;;;;;5054790;28;20626;-78
2022/12/30 08:12:51;;;;;;;5.18;1.50;;;;;;;;;;5056321;28;20578;-78
2022/12/30 08:15:17;;;;;;;4.07;1.50;;;;;;;;;;5038192;28;20713;-78
2022/12/30 08:17:43;;;;;;;7.70;1.27;;;;;;;;;;5038812;28;20184;-78
2022/12/30 08:20:10;;;;;;;7.43;1.60;;;;;;;;;;5055864;28;20176;-79
2022/12/30 08:22:36;;;;;;;10.55;2.00;;;;;;;;;;5056796;28;20179;-78
2022/12/30 08:25:02;;;;;;;2.90;1.30;;;;;;;;;;5038444;28;20181;-79
2022/12/30 08:27:28;;;;;;;6.90;2.13;;;;;;;;;;5055081;28;20170;-78
2022/12/30 08:29:54;;;;;;;4.05;1.65;;;;;;;;;;5056774;28;20541;-78
2022/12/30 08:32:21;;;;;;;9.50;1.33;;;;;;;;;;5054341;28;20174;-78
2022/12/30 08:34:47;;;;;;;8.25;1.75;;;;;;;;;;5055647;28;20255;-77
2022/12/30 08:37:13;;;;;;;4.65;2.03;;;;;;;;;;5053945;28;20650;-78
2022/12/30 08:39:39;;;;;;;4.00;1.35;;;;;;;;;;5037901;28;20695;-78
2022/12/30 08:42:05;;;;;;;3.58;1.65;;;;;;;;;;5054394;28;20186;-78
2022/12/30 08:44:31;;;;;;;4.90;2.92;;;;;;;;;;5055438;28;20166;-78
2022/12/30 08:46:57;;;;;;;4.50;1.30;;;;;;;;;;5054526;28;20182;-77
2022/12/30 08:49:23;;;;;;;3.65;1.48;;;;;;;;;;5054116;28;20169;-78
2022/12/30 08:51:49;;;;;;;5.68;1.50;;;;;;;;;;5054834;28;20200;-78
2022/12/30 08:54:16;;;;;;;2.42;1.38;;;;;;;;;;5054049;28;20594;-79
2022/12/30 08:56:45;;;;;;;4.20;1.75;;;;;;;;;;5055693;28;20316;-79
2022/12/30 08:59:11;;;;;;;5.68;1.63;;;;;;;;;;5053584;28;20540;-78
2022/12/30 09:01:40;;;;;;;4.13;1.40;;;;;;;;;;5054672;28;20628;-78
2022/12/30 09:04:06;;;;;;;4.82;1.55;;;;;;;;;;5055274;28;20166;-78
2022/12/30 09:06:33;;;;;;;6.22;1.42;;;;;;;;;;5037304;28;20174;-78
2022/12/30 09:08:59;;;;;;;5.53;1.75;;;;;;;;;;5053798;28;20224;-78
2022/12/30 09:11:28;;;;;;;5.35;1.40;;;;;;;;;;5037249;28;20197;-78
2022/12/30 09:13:54;;;;;;;4.00;1.58;;;;;;;;;;5053919;28;20520;-78
2022/12/30 09:16:21;;;;;;;5.55;1.25;;;;;;;;;;5037304;28;20220;-78
2022/12/30 09:18:48;;;;;;;3.20;1.52;;;;;;;;;;5054721;28;20200;-75
2022/12/30 09:21:14;;;;;;;5.93;1.40;;;;;;;;;;5054590;28;20176;-78
2022/12/30 09:23:40;;;;;;;3.92;1.50;;;;;;;;;;5054982;28;20165;-78
2022/12/30 09:26:08;;;;;;;2.38;1.25;;;;;;;;;;5053599;28;20223;-78
2022/12/30 09:28:35;;;;;;;5.03;1.23;;;;;;;;;;5055523;28;20191;-75
2022/12/30 09:31:01;;;;;;;4.63;1.35;;;;;;;;;;5055243;28;20166;-79
2022/12/30 09:33:27;;;;;;;6.88;1.45;;;;;;;;;;5055550;28;20220;-75
2022/12/30 09:35:53;;;;;;;6.18;1.48;;;;;;;;;;5056166;28;20263;-75
2022/12/30 09:38:19;;;;;;;2.97;1.40;;;;;;;;;;5054432;28;20192;-75
2022/12/30 09:40:57;;;;;;;5.32;1.00;;;;;;;;;;5054941;28;20197;-75
2022/12/30 09:43:36;;;;;;;4.22;1.30;;;;;;;;;;5056070;28;20254;-76
2022/12/30 09:46:09;;;;;;;8.63;1.98;;;;;;;;;;5055304;28;20176;-79
2022/12/30 09:48:39;;;;;;;5.10;1.90;;;;;;;;;;5056246;28;20184;-75
2022/12/30 09:51:10;;;;;;;13.20;2.47;;;;;;;;;;5054679;28;20178;-77
2022/12/30 09:53:36;;;;;;;6.15;1.50;;;;;;;;;;5053810;28;20173;-79
2022/12/30 09:56:03;;;;;;;8.20;1.85;;;;;;;;;;5053379;28;20203;-78
2022/12/30 09:58:31;;;;;;;5.25;1.30;;;;;;;;;;5053803;28;20193;-75
2022/12/30 10:01:07;;;;;;;3.83;1.35;;;;;;;;;;5055593;28;20177;-76
2022/12/30 10:03:33;;;;;;;8.93;2.42;;;;;;;;;;5054762;28;20172;-78
2022/12/30 10:05:59;;;;;;;8.27;1.40;;;;;;;;;;5053089;28;20181;-78
2022/12/30 10:08:37;;;;;;;7.70;1.53;;;;;;;;;;5053291;28;20595;-75
2022/12/30 10:11:26;;;;;;;4.15;1.27;;;;;;;;;;5055252;28;20420;-78
2022/12/30 10:13:57;;;;;;;7.28;1.33;;;;;;;;;;5055164;28;20177;-79
2022/12/30 10:16:44;;;;;;;3.53;1.23;;;;;;;;;;5054629;28;20227;-78
2022/12/30 10:19:14;;;;;;;3.42;1.25;;;;;;;;;;5053830;28;20239;-77
2022/12/30 10:21:40;;;;;;;8.63;1.20;;;;;;;;;;5057156;28;20182;-79
2022/12/30 10:24:36;;;;;;;2.33;1.60;;;;;;;;;;5058125;28;20177;-79
2022/12/30 10:27:06;;;;;;;4.38;1.00;;;;;;;;;;5047795;28;20280;-78
2022/12/30 10:29:34;;;;;;;3.08;1.30;;;;;;;;;;5058260;28;20188;-78
2022/12/30 10:32:06;;;;;;;4.15;1.05;;;;;;;;;;5057381;28;20180;-79
2022/12/30 10:34:33;;;;;;;10.23;1.50;;;;;;;;;;5056848;28;20174;-79
2022/12/30 10:37:03;;;;;;;4.63;1.40;;;;;;;;;;5041039;28;20236;-78
2022/12/30 10:39:31;;;;;;;6.40;1.73;;;;;;;;;;5056908;28;20578;-76
2022/12/30 10:42:16;;;;;;;1.75;0.90;;;;;;;;;;5056801;28;20184;-76
2022/12/30 10:44:49;;;;;;;3.75;1.40;;;;;;;;;;5057237;28;20188;-78
2022/12/30 10:47:34;;;;;;;3.67;1.33;;;;;;;;;;5057271;28;20626;-77
2022/12/30 10:50:19;;;;;;;6.45;1.63;;;;;;;;;;5056683;28;20177;-78
2022/12/30 10:52:46;;;;;;;6.32;1.15;;;;;;;;;;5056607;28;20178;-78
2022/12/30 10:55:31;;;;;;;6.22;1.73;;;;;;;;;;5056255;28;20210;-78
2022/12/30 10:58:00;;;;;;;4.43;1.55;;;;;;;;;;5056693;28;20173;-75
2022/12/30 11:00:27;;;;;;;4.88;1.55;;;;;;;;;;5056719;28;20185;-78
2022/12/30 11:02:54;;;;;;;4.28;1.67;;;;;;;;;;5056575;28;20166;-78
2022/12/30 11:05:35;;;;;;;4.82;1.90;;;;;;;;;;5056949;28;20235;-78
2022/12/30 11:08:02;;;;;;;5.65;1.77;;;;;;;;;;5056699;28;20271;-76
2022/12/30 11:10:29;;;;;;;7.40;1.70;;;;;;;;;;5056894;28;20277;-75
2022/12/30 11:15:56;;;;;;;8.57;2.28;;;;;;;;;;5053019;28;20243;-80
2022/12/30 11:18:27;;;;;;;3.13;1.20;;;;;;;;;;5051761;28;20177;-80
2022/12/30 11:20:55;;;;;;;2.75;1.40;;;;;;;;;;5053103;28;20204;-77
2022/12/30 11:23:26;;;;;;;3.08;0.90;;;;;;;;;;5052526;28;20181;-76
2022/12/30 11:25:52;;;;;;;5.20;1.00;;;;;;;;;;5056190;28;20193;-75
2022/12/30 11:28:21;;;;;;;3.20;1.08;;;;;;;;;;5057155;28;20502;-76
2022/12/30 11:30:53;;;;;;;4.38;1.20;;;;;;;;;;5056387;28;20186;-75
2022/12/30 11:33:25;;;;;;;8.13;1.85;;;;;;;;;;5056215;28;20181;-76
2022/12/30 11:35:51;;;;;;;2.60;1.05;;;;;;;;;;5057551;28;20637;-75
2022/12/30 11:38:37;;;;;;;8.43;1.42;;;;;;;;;;5055730;28;20201;-77
2022/12/30 11:41:20;;;;;;;6.85;1.75;;;;;;;;;;5057144;28;20179;-76
2022/12/30 11:43:47;;;;;;;5.13;1.20;;;;;;;;;;5056079;28;20174;-76
2022/12/30 11:46:14;;;;;;;4.85;1.30;;;;;;;;;;5055400;28;20584;-77
2022/12/30 11:48:45;;;;;;;2.05;0.90;;;;;;;;;;5055655;28;20589;-77
2022/12/30 11:51:32;;;;;;;6.57;1.70;;;;;;;;;;5055732;28;20295;-77
2022/12/30 11:54:14;;;;;;;5.15;1.20;;;;;;;;;;5057057;28;20252;-76
2022/12/30 11:56:52;;;;;;;5.72;1.58;;;;;;;;;;5055703;28;20307;-77
2022/12/30 11:59:20;;;;;;;4.18;1.38;;;;;;;;;;5056601;28;20176;-77
2022/12/30 12:01:48;;;;;;;4.22;1.20;;;;;;;;;;5055663;28;20518;-76
2022/12/30 12:04:47;;;;;;;3.47;1.30;;;;;;;;;;5056661;28;20192;-76
2022/12/30 12:07:16;;;;;;;4.35;1.63;;;;;;;;;;5033314;28;20283;-77
2022/12/30 12:09:46;;;;;;;5.28;1.75;;;;;;;;;;5054362;28;20233;-79
2022/12/30 12:12:13;;;;;;;5.70;2.55;;;;;;;;;;5054847;28;20214;-81
2022/12/30 12:14:45;;;;;;;7.72;1.90;;;;;;;;;;5052317;28;20173;-79
2022/12/30 12:17:26;;;;;;;4.50;1.63;;;;;;;;;;5053015;28;20268;-77
2022/12/30 12:19:56;;;;;;;6.63;1.73;;;;;;;;;;5055218;28;20173;-77
2022/12/30 12:22:26;;;;;;;4.00;1.70;;;;;;;;;;5056182;28;20176;-77
2022/12/30 12:24:59;;;;;;;6.07;1.70;;;;;;;;;;5056287;28;20174;-77
2022/12/30 12:27:26;;;;;;;4.22;1.65;;;;;;;;;;5054866;28;20536;-77
2022/12/30 12:29:53;;;;;;;4.05;1.92;;;;;;;;;;5054762;28;20697;-77
2022/12/30 12:32:38;;;;;;;3.33;1.20;;;;;;;;;;5054777;28;20219;-77
2022/12/30 12:35:04;;;;;;;7.70;1.70;;;;;;;;;;5054727;28;20213;-78
2022/12/30 12:37:37;;;;;;;3.60;1.70;;;;;;;;;;5054346;28;20231;-78
2022/12/30 12:40:22;;;;;;;3.85;1.70;;;;;;;;;;5055715;28;20157;-78
2022/12/30 12:42:48;;;;;;;3.45;1.77;;;;;;;;;;5051119;28;20200;-80
2022/12/30 12:45:20;;;;;;;11.48;1.80;;;;;;;;;;5050030;28;20181;-82
2022/12/30 12:48:05;;;;;;;3.58;1.38;;;;;;;;;;5051036;28;20214;-79
2022/12/30 12:50:49;;;;;;;5.32;2.28;;;;;;;;;;5049736;28;20185;-79
2022/12/30 12:53:34;;;;;;;1.95;1.20;;;;;;;;;;5049520;28;20848;-78
2022/12/30 12:56:06;;;;;;;4.18;1.15;;;;;;;;;;5049080;28;20216;-77
2022/12/30 12:58:50;;;;;;;3.67;1.50;;;;;;;;;;5054288;28;20636;-78
2022/12/30 13:01:32;;;;;;;1.90;0.90;;;;;;;;;;5055088;28;20181;-78
2022/12/30 13:04:16;;;;;;;3.38;1.52;;;;;;;;;;5055454;28;20162;-78
2022/12/30 13:06:48;;;;;;;5.25;1.50;;;;;;;;;;5054118;28;20186;-77
2022/12/30 13:09:30;;;;;;;3.30;1.45;;;;;;;;;;5050515;28;20233;-81
2022/12/30 13:12:05;;;;;;;5.95;1.33;;;;;;;;;;5055054;28;20181;-76
2022/12/30 13:14:34;;;;;;;2.40;1.10;;;;;;;;;;5054111;28;20173;-76
2022/12/30 13:17:02;;;;;;;5.80;1.40;;;;;;;;;;5055422;28;20773;-76
2022/12/30 13:19:32;;;;;;;2.30;1.40;;;;;;;;;;5054453;28;20181;-77
2022/12/30 13:22:00;;;;;;;1.63;1.25;;;;;;;;;;5056273;28;20181;-76
2022/12/30 13:24:29;;;;;;;5.13;1.52;;;;;;;;;;5054079;28;20227;-76
2022/12/30 13:26:55;;;;;;;4.22;1.73;;;;;;;;;;5056388;28;20200;-76
2022/12/30 13:29:22;;;;;;;2.55;1.52;;;;;;;;;;5053569;28;20622;-77
2022/12/30 13:31:53;;;;;;;6.63;1.60;;;;;;;;;;5052783;28;20173;-77
2022/12/30 13:34:24;;;;;;;4.57;1.67;;;;;;;;;;5052430;28;20177;-77
2022/12/30 13:36:50;;;;;;;4.80;1.50;;;;;;;;;;5054881;28;20190;-77
2022/12/30 13:39:22;;;;;;;3.58;1.60;;;;;;;;;;5053479;28;20178;-76
2022/12/30 13:42:06;;;;;;;6.20;2.20;;;;;;;;;;5052785;28;20188;-78
2022/12/30 13:44:35;;;;;;;3.47;1.92;;;;;;;;;;5054464;28;20177;-78
2022/12/30 13:47:01;;;;;;;3.50;1.33;;;;;;;;;;5054434;28;20173;-77
2022/12/30 13:49:29;;;;;;;4.32;1.58;;;;;;;;;;5051945;28;20580;-78
2022/12/30 13:51:58;;;;;;;5.65;2.95;;;;;;;;;;5053470;28;20169;-77
2022/12/30 13:54:25;;;;;;;6.10;1.73;;;;;;;;;;5056074;28;20256;-80
2022/12/30 13:56:51;;;;;;;3.80;1.63;;;;;;;;;;5040890;28;20213;-80
2022/12/30 13:59:20;;;;;;;1.17;0.85;;;;;;;;;;5040748;28;20177;-81
2022/12/30 14:01:47;;;;;;;3.80;1.70;;;;;;;;;;5056305;28;20184;-78
2022/12/30 14:04:13;;;;;;;3.67;1.70;;;;;;;;;;5055752;28;20178;-80
2022/12/30 14:06:54;;;;;;;3.45;1.60;;;;;;;;;;5058962;28;20173;-79
2022/12/30 14:09:26;;;;;;;3.60;1.40;;;;;;;;;;5057130;28;20264;-79
2022/12/30 14:12:05;;;;;;;2.83;1.58;;;;;;;;;;5055900;28;20529;-81
2022/12/30 14:14:31;;;;;;;2.55;1.63;;;;;;;;;;5057393;28;20204;-79
2022/12/30 14:16:57;;;;;;;3.37;1.43;;;;;;;;;;5055577;28;20233;-80
2022/12/30 14:19:38;;;;;;;7.15;2.17;;;;;;;;;;5057351;28;20404;-80
2022/12/30 14:22:04;;;;;;;4.53;1.17;;;;;;;;;;5056688;28;20173;-80
2022/12/30 14:24:30;;;;;;;6.25;1.63;;;;;;;;;;5056637;28;20169;-79
2022/12/30 14:27:00;;;;;;;4.40;2.10;;;;;;;;;;5057149;28;20265;-80
2022/12/30 14:29:28;;;;;;;5.60;1.80;;;;;;;;;;5051365;28;20170;-80
2022/12/30 14:31:56;;;;;;;7.40;3.33;;;;;;;;;;5050645;28;20170;-80
2022/12/30 14:34:36;;;;;;;5.07;2.20;;;;;;;;;;5051914;28;20550;-81
2022/12/30 14:37:05;;;;;;;4.25;1.90;;;;;;;;;;5052082;28;20238;-80
2022/12/30 14:39:33;;;;;;;4.25;2.70;;;;;;;;;;5056649;28;20251;-79
2022/12/30 14:42:02;;;;;;;2.60;1.75;;;;;;;;;;5052718;28;20189;-82
2022/12/30 14:44:29;;;;;;;1.80;1.60;;;;;;;;;;5053106;28;20189;-80
2022/12/30 14:47:00;;;;;;;6.43;1.92;;;;;;;;;;5053388;28;20534;-80
2022/12/30 14:49:26;;;;;;;7.88;1.80;;;;;;;;;;5055541;28;20219;-80
2022/12/30 14:52:04;;;;;;;4.45;1.70;;;;;;;;;;5056088;28;20177;-81
2022/12/30 14:54:40;;;;;;;4.43;1.55;;;;;;;;;;5052824;28;20239;-81
2022/12/30 14:57:07;;;;;;;4.55;1.80;;;;;;;;;;5055899;28;20213;-80
2022/12/30 14:59:35;;;;;;;2.90;1.20;;;;;;;;;;5054940;28;20540;-79
2022/12/30 15:02:09;;;;;;;1.38;0.90;;;;;;;;;;5054265;28;20170;-79
2022/12/30 15:04:35;;;;;;;3.83;1.73;;;;;;;;;;5054619;28;20196;-81
2022/12/30 15:07:01;;;;;;;8.27;2.00;;;;;;;;;;5056100;28;20181;-81
2022/12/30 15:09:27;;;;;;;6.50;2.00;;;;;;;;;;5055550;28;20586;-81
2022/12/30 15:11:55;;;;;;;4.95;2.72;;;;;;;;;;5056907;28;20211;-81
2022/12/30 15:14:21;;;;;;;8.00;2.60;;;;;;;;;;5053140;28;20178;-83
2022/12/30 15:17:04;;;;;;;3.85;2.15;;;;;;;;;;5035026;28;20221;-81
2022/12/30 15:19:30;;;;;;;4.32;2.20;;;;;;;;;;5051253;28;20195;-83
2022/12/30 15:21:57;;;;;;;3.30;1.80;;;;;;;;;;5049978;28;20181;-81
2022/12/30 15:24:25;;;;;;;3.42;1.95;;;;;;;;;;5051355;28;20512;-81
2022/12/30 15:26:52;;;;;;;2.80;1.90;;;;;;;;;;5053516;28;20180;-81
2022/12/30 15:29:21;;;;;;;2.85;1.70;;;;;;;;;;5054440;28;20177;-82
2022/12/30 15:31:51;;;;;;;3.15;1.77;;;;;;;;;;5054086;28;20180;-81
2022/12/30 15:34:22;;;;;;;1.50;1.15;;;;;;;;;;5052620;28;20297;-83
2022/12/30 15:36:48;;;;;;;1.70;1.25;;;;;;;;;;5050389;28;20637;-82
2022/12/30 15:39:16;;;;;;;2.90;1.13;;;;;;;;;;5051799;28;20181;-82
2022/12/30 15:41:43;;;;;;;1.35;1.23;;;;;;;;;;5050661;28;20209;-80
2022/12/30 15:44:13;;;;;;;1.02;0.80;;;;;;;;;;5049830;28;20185;-81